X  Zamknij Lotniskowe dane METAR     EDDH Hamburg Helmut Schmidt Airport
Temperatura
18°C Temperatura
17°C Punkt rosy
94% Wilgotność



Wiatr
3 M/S
6 MPH
10 KM/H
5 KTS



280°
W
Warunki bieżące

Czyste Czyste
Ciśnienie 1013.88 (hPa) - 29.94 (inHg)
Widoczność 6 (mil) - 9.7 (km)
Lotnisko
Kod lotniska EDDH

Położenie: Hamburg Helmut Schmidt Airport
Odległość: 11 (km)

Metar:
EDDH 231950Z AUTO 28005KT CAVOK 18/17 Q1014 NOSIG

Czas: 23-07-2024 21:50 CEST